sensor_id;sensor_type;location;lat;lon;timestamp;P1;durP1;ratioP1;P2;durP2;ratioP2
13455;SDS011;6800;50.940;6.940;2022-07-29T00:02:19;2.60;;;1.90;;
13455;SDS011;6800;50.940;6.940;2022-07-29T00:06:20;3.13;;;1.13;;
13455;SDS011;6800;50.940;6.940;2022-07-29T00:10:20;5.68;;;1.73;;
13455;SDS011;6800;50.940;6.940;2022-07-29T00:14:21;2.92;;;1.30;;
13455;SDS011;6800;50.940;6.940;2022-07-29T00:18:21;5.13;;;1.65;;
13455;SDS011;6800;50.940;6.940;2022-07-29T00:22:21;4.15;;;1.80;;
13455;SDS011;6800;50.940;6.940;2022-07-29T00:26:22;2.53;;;1.67;;
13455;SDS011;6800;50.940;6.940;2022-07-29T00:30:22;4.10;;;1.80;;
13455;SDS011;6800;50.940;6.940;2022-07-29T00:34:23;5.60;;;1.45;;
13455;SDS011;6800;50.940;6.940;2022-07-29T00:38:42;3.30;;;1.65;;
13455;SDS011;6800;50.940;6.940;2022-07-29T00:42:48;4.05;;;1.30;;
13455;SDS011;6800;50.940;6.940;2022-07-29T00:46:50;4.47;;;1.70;;
13455;SDS011;6800;50.940;6.940;2022-07-29T00:50:50;3.30;;;1.38;;
13455;SDS011;6800;50.940;6.940;2022-07-29T00:54:51;4.45;;;1.50;;
13455;SDS011;6800;50.940;6.940;2022-07-29T00:58:54;5.18;;;1.65;;
13455;SDS011;6800;50.940;6.940;2022-07-29T01:02:56;7.20;;;1.58;;
13455;SDS011;6800;50.940;6.940;2022-07-29T01:06:57;4.22;;;1.60;;
13455;SDS011;6800;50.940;6.940;2022-07-29T01:10:58;4.95;;;1.65;;
13455;SDS011;6800;50.940;6.940;2022-07-29T01:15:01;3.60;;;1.83;;
13455;SDS011;6800;50.940;6.940;2022-07-29T01:19:18;4.03;;;2.22;;
13455;SDS011;6800;50.940;6.940;2022-07-29T01:28:06;4.15;;;1.60;;
13455;SDS011;6800;50.940;6.940;2022-07-29T01:32:10;2.13;;;1.60;;
13455;SDS011;6800;50.940;6.940;2022-07-29T01:36:14;5.05;;;1.55;;
13455;SDS011;6800;50.940;6.940;2022-07-29T01:40:20;2.53;;;1.45;;
13455;SDS011;6800;50.940;6.940;2022-07-29T01:44:27;3.25;;;1.52;;
13455;SDS011;6800;50.940;6.940;2022-07-29T01:48:40;3.05;;;1.63;;
13455;SDS011;6800;50.940;6.940;2022-07-29T01:52:52;3.25;;;1.70;;
13455;SDS011;6800;50.940;6.940;2022-07-29T01:56:56;4.40;;;1.90;;
13455;SDS011;6800;50.940;6.940;2022-07-29T02:01:03;5.07;;;1.52;;
13455;SDS011;6800;50.940;6.940;2022-07-29T02:05:05;4.00;;;1.38;;
13455;SDS011;6800;50.940;6.940;2022-07-29T02:09:10;6.50;;;1.65;;
13455;SDS011;6800;50.940;6.940;2022-07-29T02:13:14;2.65;;;1.48;;
13455;SDS011;6800;50.940;6.940;2022-07-29T02:17:21;3.08;;;1.40;;
13455;SDS011;6800;50.940;6.940;2022-07-29T02:21:26;4.07;;;1.58;;
13455;SDS011;6800;50.940;6.940;2022-07-29T02:25:30;3.50;;;1.70;;
13455;SDS011;6800;50.940;6.940;2022-07-29T02:29:31;4.05;;;1.48;;
13455;SDS011;6800;50.940;6.940;2022-07-29T02:33:33;3.88;;;1.63;;
13455;SDS011;6800;50.940;6.940;2022-07-29T02:37:35;3.55;;;1.65;;
13455;SDS011;6800;50.940;6.940;2022-07-29T02:41:44;5.10;;;1.30;;
13455;SDS011;6800;50.940;6.940;2022-07-29T02:45:47;3.30;;;1.40;;
13455;SDS011;6800;50.940;6.940;2022-07-29T02:54:14;2.58;;;1.30;;
13455;SDS011;6800;50.940;6.940;2022-07-29T02:58:27;2.33;;;1.63;;
13455;SDS011;6800;50.940;6.940;2022-07-29T03:02:32;3.95;;;1.80;;
13455;SDS011;6800;50.940;6.940;2022-07-29T03:06:36;5.70;;;1.80;;
13455;SDS011;6800;50.940;6.940;2022-07-29T03:10:43;2.10;;;1.42;;
13455;SDS011;6800;50.940;6.940;2022-07-29T03:14:45;3.85;;;1.90;;
13455;SDS011;6800;50.940;6.940;2022-07-29T03:18:46;4.25;;;1.70;;
13455;SDS011;6800;50.940;6.940;2022-07-29T03:22:47;6.78;;;2.17;;
13455;SDS011;6800;50.940;6.940;2022-07-29T03:26:48;4.03;;;1.58;;
13455;SDS011;6800;50.940;6.940;2022-07-29T03:30:49;5.40;;;1.58;;
13455;SDS011;6800;50.940;6.940;2022-07-29T03:34:49;5.78;;;1.92;;
13455;SDS011;6800;50.940;6.940;2022-07-29T03:38:50;4.63;;;1.98;;
13455;SDS011;6800;50.940;6.940;2022-07-29T03:42:50;5.15;;;1.70;;
13455;SDS011;6800;50.940;6.940;2022-07-29T03:46:53;5.75;;;1.55;;
13455;SDS011;6800;50.940;6.940;2022-07-29T03:50:57;3.95;;;1.80;;
13455;SDS011;6800;50.940;6.940;2022-07-29T03:54:58;7.40;;;2.03;;
13455;SDS011;6800;50.940;6.940;2022-07-29T03:58:58;5.55;;;1.77;;
13455;SDS011;6800;50.940;6.940;2022-07-29T04:03:01;5.53;;;1.88;;
13455;SDS011;6800;50.940;6.940;2022-07-29T04:07:03;3.95;;;2.35;;
13455;SDS011;6800;50.940;6.940;2022-07-29T04:11:04;3.80;;;2.00;;
13455;SDS011;6800;50.940;6.940;2022-07-29T04:15:05;5.60;;;1.95;;
13455;SDS011;6800;50.940;6.940;2022-07-29T04:19:06;6.38;;;2.10;;
13455;SDS011;6800;50.940;6.940;2022-07-29T04:23:06;9.75;;;2.30;;
13455;SDS011;6800;50.940;6.940;2022-07-29T04:27:06;6.72;;;1.83;;
13455;SDS011;6800;50.940;6.940;2022-07-29T04:31:07;3.53;;;1.63;;
13455;SDS011;6800;50.940;6.940;2022-07-29T04:35:07;5.35;;;2.00;;
13455;SDS011;6800;50.940;6.940;2022-07-29T04:39:08;5.47;;;2.13;;
13455;SDS011;6800;50.940;6.940;2022-07-29T04:43:08;4.43;;;2.17;;
13455;SDS011;6800;50.940;6.940;2022-07-29T04:47:08;7.50;;;2.10;;
13455;SDS011;6800;50.940;6.940;2022-07-29T04:51:09;3.97;;;1.88;;
13455;SDS011;6800;50.940;6.940;2022-07-29T04:55:09;6.75;;;2.05;;
13455;SDS011;6800;50.940;6.940;2022-07-29T04:59:09;7.38;;;2.17;;
13455;SDS011;6800;50.940;6.940;2022-07-29T05:03:10;7.45;;;2.03;;
13455;SDS011;6800;50.940;6.940;2022-07-29T05:07:10;7.47;;;1.83;;
13455;SDS011;6800;50.940;6.940;2022-07-29T05:11:10;6.45;;;1.90;;
13455;SDS011;6800;50.940;6.940;2022-07-29T05:15:11;3.95;;;1.70;;
13455;SDS011;6800;50.940;6.940;2022-07-29T05:19:12;6.35;;;2.10;;
13455;SDS011;6800;50.940;6.940;2022-07-29T05:23:12;6.32;;;2.25;;
13455;SDS011;6800;50.940;6.940;2022-07-29T05:27:12;5.97;;;1.85;;
13455;SDS011;6800;50.940;6.940;2022-07-29T05:31:13;7.43;;;1.83;;
13455;SDS011;6800;50.940;6.940;2022-07-29T05:35:14;5.75;;;2.15;;
13455;SDS011;6800;50.940;6.940;2022-07-29T05:39:15;7.18;;;2.08;;
13455;SDS011;6800;50.940;6.940;2022-07-29T05:43:15;6.43;;;1.90;;
13455;SDS011;6800;50.940;6.940;2022-07-29T05:47:16;7.07;;;1.83;;
13455;SDS011;6800;50.940;6.940;2022-07-29T05:51:16;7.32;;;2.17;;
13455;SDS011;6800;50.940;6.940;2022-07-29T05:55:16;7.90;;;2.08;;
13455;SDS011;6800;50.940;6.940;2022-07-29T05:59:17;11.13;;;2.42;;
13455;SDS011;6800;50.940;6.940;2022-07-29T06:03:17;5.13;;;1.98;;
13455;SDS011;6800;50.940;6.940;2022-07-29T06:07:17;9.10;;;2.13;;
13455;SDS011;6800;50.940;6.940;2022-07-29T06:11:17;7.47;;;1.88;;
13455;SDS011;6800;50.940;6.940;2022-07-29T06:15:18;4.22;;;1.80;;
13455;SDS011;6800;50.940;6.940;2022-07-29T06:19:18;6.80;;;2.30;;
13455;SDS011;6800;50.940;6.940;2022-07-29T06:23:19;4.45;;;1.70;;
13455;SDS011;6800;50.940;6.940;2022-07-29T06:27:20;8.27;;;2.20;;
13455;SDS011;6800;50.940;6.940;2022-07-29T06:31:20;5.93;;;2.03;;
13455;SDS011;6800;50.940;6.940;2022-07-29T06:35:20;8.00;;;2.30;;
13455;SDS011;6800;50.940;6.940;2022-07-29T06:39:21;7.95;;;2.20;;
13455;SDS011;6800;50.940;6.940;2022-07-29T06:43:22;6.47;;;1.58;;
13455;SDS011;6800;50.940;6.940;2022-07-29T06:47:22;4.70;;;2.28;;
13455;SDS011;6800;50.940;6.940;2022-07-29T06:51:22;4.80;;;1.80;;
13455;SDS011;6800;50.940;6.940;2022-07-29T06:55:23;2.95;;;1.77;;
13455;SDS011;6800;50.940;6.940;2022-07-29T06:59:23;7.22;;;1.85;;
13455;SDS011;6800;50.940;6.940;2022-07-29T07:03:23;4.20;;;1.77;;
13455;SDS011;6800;50.940;6.940;2022-07-29T07:07:24;7.57;;;2.67;;
13455;SDS011;6800;50.940;6.940;2022-07-29T07:11:25;5.38;;;1.90;;
13455;SDS011;6800;50.940;6.940;2022-07-29T07:15:28;6.82;;;2.47;;
13455;SDS011;6800;50.940;6.940;2022-07-29T07:19:29;10.52;;;2.40;;
13455;SDS011;6800;50.940;6.940;2022-07-29T07:23:29;5.72;;;2.60;;
13455;SDS011;6800;50.940;6.940;2022-07-29T07:27:30;5.28;;;2.28;;
13455;SDS011;6800;50.940;6.940;2022-07-29T07:31:30;5.15;;;2.67;;
13455;SDS011;6800;50.940;6.940;2022-07-29T07:35:31;8.43;;;3.10;;
13455;SDS011;6800;50.940;6.940;2022-07-29T07:39:31;6.35;;;3.05;;
13455;SDS011;6800;50.940;6.940;2022-07-29T07:43:31;8.80;;;2.80;;
13455;SDS011;6800;50.940;6.940;2022-07-29T07:47:32;5.97;;;2.50;;
13455;SDS011;6800;50.940;6.940;2022-07-29T07:51:32;8.23;;;2.50;;
13455;SDS011;6800;50.940;6.940;2022-07-29T07:55:33;6.78;;;2.83;;
13455;SDS011;6800;50.940;6.940;2022-07-29T07:59:33;5.47;;;2.85;;
13455;SDS011;6800;50.940;6.940;2022-07-29T08:03:33;7.78;;;2.75;;
13455;SDS011;6800;50.940;6.940;2022-07-29T08:07:34;7.28;;;2.95;;
13455;SDS011;6800;50.940;6.940;2022-07-29T08:11:34;4.97;;;2.88;;
13455;SDS011;6800;50.940;6.940;2022-07-29T08:15:35;6.95;;;2.55;;
13455;SDS011;6800;50.940;6.940;2022-07-29T08:19:35;9.80;;;3.10;;
13455;SDS011;6800;50.940;6.940;2022-07-29T08:23:37;6.22;;;2.58;;
13455;SDS011;6800;50.940;6.940;2022-07-29T08:27:46;7.82;;;3.03;;
13455;SDS011;6800;50.940;6.940;2022-07-29T08:31:46;8.70;;;3.20;;
13455;SDS011;6800;50.940;6.940;2022-07-29T08:35:47;6.57;;;3.25;;
13455;SDS011;6800;50.940;6.940;2022-07-29T08:39:47;13.05;;;10.40;;
13455;SDS011;6800;50.940;6.940;2022-07-29T08:43:48;9.68;;;3.17;;
13455;SDS011;6800;50.940;6.940;2022-07-29T08:47:49;5.25;;;2.85;;
13455;SDS011;6800;50.940;6.940;2022-07-29T08:51:49;4.55;;;2.55;;
13455;SDS011;6800;50.940;6.940;2022-07-29T08:55:51;10.50;;;3.25;;
13455;SDS011;6800;50.940;6.940;2022-07-29T08:59:52;12.40;;;3.45;;
13455;SDS011;6800;50.940;6.940;2022-07-29T09:03:55;8.20;;;3.63;;
13455;SDS011;6800;50.940;6.940;2022-07-29T09:07:56;8.70;;;3.80;;
13455;SDS011;6800;50.940;6.940;2022-07-29T09:12:00;7.82;;;4.00;;
13455;SDS011;6800;50.940;6.940;2022-07-29T09:16:00;8.45;;;3.90;;
13455;SDS011;6800;50.940;6.940;2022-07-29T09:20:08;13.27;;;4.90;;
13455;SDS011;6800;50.940;6.940;2022-07-29T09:24:11;7.80;;;3.40;;
13455;SDS011;6800;50.940;6.940;2022-07-29T09:28:14;7.07;;;3.70;;
13455;SDS011;6800;50.940;6.940;2022-07-29T09:32:16;6.65;;;3.90;;
13455;SDS011;6800;50.940;6.940;2022-07-29T09:36:16;7.77;;;3.40;;
13455;SDS011;6800;50.940;6.940;2022-07-29T09:40:18;8.18;;;3.55;;
13455;SDS011;6800;50.940;6.940;2022-07-29T09:44:26;10.60;;;3.00;;
13455;SDS011;6800;50.940;6.940;2022-07-29T09:48:26;5.68;;;3.40;;
13455;SDS011;6800;50.940;6.940;2022-07-29T09:52:28;7.57;;;3.77;;
13455;SDS011;6800;50.940;6.940;2022-07-29T09:56:39;5.20;;;2.80;;
13455;SDS011;6800;50.940;6.940;2022-07-29T10:00:41;6.05;;;3.30;;
13455;SDS011;6800;50.940;6.940;2022-07-29T10:04:43;7.22;;;4.30;;
13455;SDS011;6800;50.940;6.940;2022-07-29T10:08:43;7.93;;;3.53;;
13455;SDS011;6800;50.940;6.940;2022-07-29T10:12:58;6.82;;;2.95;;
13455;SDS011;6800;50.940;6.940;2022-07-29T10:17:02;6.13;;;3.20;;
13455;SDS011;6800;50.940;6.940;2022-07-29T10:21:03;5.57;;;2.95;;
13455;SDS011;6800;50.940;6.940;2022-07-29T10:25:04;6.03;;;2.75;;
13455;SDS011;6800;50.940;6.940;2022-07-29T10:29:04;5.75;;;2.80;;
13455;SDS011;6800;50.940;6.940;2022-07-29T10:33:20;6.78;;;3.20;;
13455;SDS011;6800;50.940;6.940;2022-07-29T10:42:17;5.40;;;3.15;;
13455;SDS011;6800;50.940;6.940;2022-07-29T10:46:19;3.80;;;2.75;;
13455;SDS011;6800;50.940;6.940;2022-07-29T10:50:20;7.15;;;2.83;;
13455;SDS011;6800;50.940;6.940;2022-07-29T10:58:35;11.23;;;4.20;;
13455;SDS011;6800;50.940;6.940;2022-07-29T11:15:21;3.90;;;2.65;;
13455;SDS011;6800;50.940;6.940;2022-07-29T11:19:22;4.57;;;2.75;;
13455;SDS011;6800;50.940;6.940;2022-07-29T11:27:24;5.45;;;3.45;;
13455;SDS011;6800;50.940;6.940;2022-07-29T11:31:38;6.53;;;2.72;;
13455;SDS011;6800;50.940;6.940;2022-07-29T11:35:43;5.43;;;2.22;;
13455;SDS011;6800;50.940;6.940;2022-07-29T11:40:21;7.03;;;3.03;;
13455;SDS011;6800;50.940;6.940;2022-07-29T11:44:37;5.00;;;2.00;;
13455;SDS011;6800;50.940;6.940;2022-07-29T11:48:56;3.33;;;2.33;;
13455;SDS011;6800;50.940;6.940;2022-07-29T11:52:58;4.47;;;2.03;;
13455;SDS011;6800;50.940;6.940;2022-07-29T11:56:59;4.47;;;2.40;;
13455;SDS011;6800;50.940;6.940;2022-07-29T12:01:03;3.70;;;2.30;;
13455;SDS011;6800;50.940;6.940;2022-07-29T12:05:03;5.18;;;2.10;;
13455;SDS011;6800;50.940;6.940;2022-07-29T12:09:07;6.32;;;2.60;;
13455;SDS011;6800;50.940;6.940;2022-07-29T12:13:09;5.40;;;2.80;;
13455;SDS011;6800;50.940;6.940;2022-07-29T12:17:24;7.13;;;2.65;;
13455;SDS011;6800;50.940;6.940;2022-07-29T12:25:49;4.55;;;2.38;;
13455;SDS011;6800;50.940;6.940;2022-07-29T12:30:00;7.40;;;2.88;;
13455;SDS011;6800;50.940;6.940;2022-07-29T12:34:02;3.88;;;2.50;;
13455;SDS011;6800;50.940;6.940;2022-07-29T12:38:02;2.75;;;1.88;;
13455;SDS011;6800;50.940;6.940;2022-07-29T12:42:13;4.57;;;2.38;;
13455;SDS011;6800;50.940;6.940;2022-07-29T12:46:15;4.30;;;2.30;;
13455;SDS011;6800;50.940;6.940;2022-07-29T12:50:16;5.68;;;2.20;;
13455;SDS011;6800;50.940;6.940;2022-07-29T12:54:17;4.70;;;1.90;;
13455;SDS011;6800;50.940;6.940;2022-07-29T12:58:28;5.00;;;2.20;;
13455;SDS011;6800;50.940;6.940;2022-07-29T13:02:39;5.90;;;2.10;;
13455;SDS011;6800;50.940;6.940;2022-07-29T13:06:44;5.43;;;2.10;;
13455;SDS011;6800;50.940;6.940;2022-07-29T13:10:45;4.20;;;2.10;;
13455;SDS011;6800;50.940;6.940;2022-07-29T13:14:46;5.35;;;2.30;;
13455;SDS011;6800;50.940;6.940;2022-07-29T13:18:48;3.95;;;2.25;;
13455;SDS011;6800;50.940;6.940;2022-07-29T13:22:48;6.65;;;2.00;;
13455;SDS011;6800;50.940;6.940;2022-07-29T13:26:49;3.90;;;2.40;;
13455;SDS011;6800;50.940;6.940;2022-07-29T13:30:49;4.82;;;2.30;;
13455;SDS011;6800;50.940;6.940;2022-07-29T13:34:50;8.88;;;3.35;;
13455;SDS011;6800;50.940;6.940;2022-07-29T13:38:51;4.05;;;3.00;;
13455;SDS011;6800;50.940;6.940;2022-07-29T13:42:51;4.20;;;3.03;;
13455;SDS011;6800;50.940;6.940;2022-07-29T13:46:51;7.00;;;3.17;;
13455;SDS011;6800;50.940;6.940;2022-07-29T13:50:52;8.35;;;3.60;;
13455;SDS011;6800;50.940;6.940;2022-07-29T13:54:52;8.32;;;3.58;;
13455;SDS011;6800;50.940;6.940;2022-07-29T13:58:52;6.30;;;3.38;;
13455;SDS011;6800;50.940;6.940;2022-07-29T14:02:53;10.57;;;3.72;;
13455;SDS011;6800;50.940;6.940;2022-07-29T14:06:53;6.68;;;4.03;;
13455;SDS011;6800;50.940;6.940;2022-07-29T14:10:54;5.90;;;3.45;;
13455;SDS011;6800;50.940;6.940;2022-07-29T14:14:54;6.65;;;3.10;;
13455;SDS011;6800;50.940;6.940;2022-07-29T14:18:54;8.80;;;3.20;;
13455;SDS011;6800;50.940;6.940;2022-07-29T14:22:55;7.57;;;3.00;;
13455;SDS011;6800;50.940;6.940;2022-07-29T14:26:56;6.47;;;4.10;;
13455;SDS011;6800;50.940;6.940;2022-07-29T14:30:56;6.95;;;3.30;;
13455;SDS011;6800;50.940;6.940;2022-07-29T14:34:56;7.87;;;3.90;;
13455;SDS011;6800;50.940;6.940;2022-07-29T14:38:57;8.82;;;3.80;;
13455;SDS011;6800;50.940;6.940;2022-07-29T14:42:57;8.13;;;3.88;;
13455;SDS011;6800;50.940;6.940;2022-07-29T14:46:58;5.80;;;3.20;;
13455;SDS011;6800;50.940;6.940;2022-07-29T14:50:59;5.50;;;3.08;;
13455;SDS011;6800;50.940;6.940;2022-07-29T14:55:00;3.78;;;2.75;;
13455;SDS011;6800;50.940;6.940;2022-07-29T14:59:02;5.30;;;2.63;;
13455;SDS011;6800;50.940;6.940;2022-07-29T15:03:03;5.05;;;2.88;;
13455;SDS011;6800;50.940;6.940;2022-07-29T15:07:03;6.35;;;2.50;;
13455;SDS011;6800;50.940;6.940;2022-07-29T15:11:04;4.82;;;2.47;;
13455;SDS011;6800;50.940;6.940;2022-07-29T15:15:04;6.47;;;2.60;;
13455;SDS011;6800;50.940;6.940;2022-07-29T15:19:05;7.97;;;2.72;;
13455;SDS011;6800;50.940;6.940;2022-07-29T15:23:05;4.30;;;2.67;;
13455;SDS011;6800;50.940;6.940;2022-07-29T15:27:09;4.68;;;2.00;;
13455;SDS011;6800;50.940;6.940;2022-07-29T15:31:13;3.42;;;2.22;;
13455;SDS011;6800;50.940;6.940;2022-07-29T15:35:14;6.05;;;2.60;;
13455;SDS011;6800;50.940;6.940;2022-07-29T15:39:14;4.40;;;2.43;;
13455;SDS011;6800;50.940;6.940;2022-07-29T15:43:14;2.90;;;2.10;;
13455;SDS011;6800;50.940;6.940;2022-07-29T15:47:15;6.80;;;2.17;;
13455;SDS011;6800;50.940;6.940;2022-07-29T15:51:15;5.60;;;2.25;;
13455;SDS011;6800;50.940;6.940;2022-07-29T15:55:15;6.37;;;2.40;;
13455;SDS011;6800;50.940;6.940;2022-07-29T15:59:16;4.75;;;2.38;;
13455;SDS011;6800;50.940;6.940;2022-07-29T16:03:16;5.07;;;2.25;;
13455;SDS011;6800;50.940;6.940;2022-07-29T16:07:16;6.37;;;2.13;;
13455;SDS011;6800;50.940;6.940;2022-07-29T16:11:17;4.97;;;2.58;;
13455;SDS011;6800;50.940;6.940;2022-07-29T16:15:17;6.43;;;2.35;;
13455;SDS011;6800;50.940;6.940;2022-07-29T16:19:18;3.05;;;2.17;;
13455;SDS011;6800;50.940;6.940;2022-07-29T16:23:18;4.50;;;2.05;;
13455;SDS011;6800;50.940;6.940;2022-07-29T16:27:18;3.95;;;2.10;;
13455;SDS011;6800;50.940;6.940;2022-07-29T16:31:23;3.60;;;2.35;;
13455;SDS011;6800;50.940;6.940;2022-07-29T16:35:24;9.10;;;2.13;;
13455;SDS011;6800;50.940;6.940;2022-07-29T16:39:24;4.88;;;2.00;;
13455;SDS011;6800;50.940;6.940;2022-07-29T16:43:24;5.28;;;2.17;;
13455;SDS011;6800;50.940;6.940;2022-07-29T16:47:25;5.10;;;2.50;;
13455;SDS011;6800;50.940;6.940;2022-07-29T16:51:25;4.68;;;2.63;;
13455;SDS011;6800;50.940;6.940;2022-07-29T16:55:26;5.00;;;2.67;;
13455;SDS011;6800;50.940;6.940;2022-07-29T16:59:27;3.75;;;2.50;;
13455;SDS011;6800;50.940;6.940;2022-07-29T17:03:28;3.38;;;1.80;;
13455;SDS011;6800;50.940;6.940;2022-07-29T17:07:28;3.88;;;2.10;;
13455;SDS011;6800;50.940;6.940;2022-07-29T17:11:29;4.85;;;2.28;;
13455;SDS011;6800;50.940;6.940;2022-07-29T17:15:30;4.68;;;2.40;;
13455;SDS011;6800;50.940;6.940;2022-07-29T17:19:31;5.45;;;2.20;;
13455;SDS011;6800;50.940;6.940;2022-07-29T17:23:34;4.07;;;2.30;;
13455;SDS011;6800;50.940;6.940;2022-07-29T17:27:34;3.60;;;2.28;;
13455;SDS011;6800;50.940;6.940;2022-07-29T17:31:35;3.72;;;2.00;;
13455;SDS011;6800;50.940;6.940;2022-07-29T17:35:36;5.03;;;2.40;;
13455;SDS011;6800;50.940;6.940;2022-07-29T17:39:55;5.03;;;2.30;;
13455;SDS011;6800;50.940;6.940;2022-07-29T17:43:55;2.95;;;2.20;;
13455;SDS011;6800;50.940;6.940;2022-07-29T17:47:56;4.55;;;2.50;;
13455;SDS011;6800;50.940;6.940;2022-07-29T17:51:56;3.75;;;2.83;;
13455;SDS011;6800;50.940;6.940;2022-07-29T17:55:57;3.97;;;2.50;;
13455;SDS011;6800;50.940;6.940;2022-07-29T17:59:57;5.55;;;2.20;;
13455;SDS011;6800;50.940;6.940;2022-07-29T18:03:58;7.25;;;2.95;;
13455;SDS011;6800;50.940;6.940;2022-07-29T18:07:58;5.63;;;2.65;;
13455;SDS011;6800;50.940;6.940;2022-07-29T18:11:58;4.40;;;2.75;;
13455;SDS011;6800;50.940;6.940;2022-07-29T18:15:59;3.95;;;2.60;;
13455;SDS011;6800;50.940;6.940;2022-07-29T18:19:59;5.43;;;2.80;;
13455;SDS011;6800;50.940;6.940;2022-07-29T18:24:00;4.88;;;2.33;;
13455;SDS011;6800;50.940;6.940;2022-07-29T18:28:01;5.68;;;2.88;;
13455;SDS011;6800;50.940;6.940;2022-07-29T18:32:01;4.70;;;2.17;;
13455;SDS011;6800;50.940;6.940;2022-07-29T18:36:01;3.78;;;2.30;;
13455;SDS011;6800;50.940;6.940;2022-07-29T18:40:02;3.72;;;2.50;;
13455;SDS011;6800;50.940;6.940;2022-07-29T18:44:03;5.88;;;2.70;;
13455;SDS011;6800;50.940;6.940;2022-07-29T18:48:04;6.20;;;2.67;;
13455;SDS011;6800;50.940;6.940;2022-07-29T18:52:07;7.45;;;3.25;;
13455;SDS011;6800;50.940;6.940;2022-07-29T18:56:07;7.55;;;3.38;;
13455;SDS011;6800;50.940;6.940;2022-07-29T19:00:09;5.70;;;2.90;;
13455;SDS011;6800;50.940;6.940;2022-07-29T19:04:11;4.93;;;2.85;;
13455;SDS011;6800;50.940;6.940;2022-07-29T19:08:11;4.13;;;2.58;;
13455;SDS011;6800;50.940;6.940;2022-07-29T19:12:11;5.63;;;2.85;;
13455;SDS011;6800;50.940;6.940;2022-07-29T19:16:12;5.72;;;2.92;;
13455;SDS011;6800;50.940;6.940;2022-07-29T19:20:13;5.57;;;2.78;;
13455;SDS011;6800;50.940;6.940;2022-07-29T19:24:14;3.80;;;2.25;;
13455;SDS011;6800;50.940;6.940;2022-07-29T19:28:14;6.32;;;3.50;;
13455;SDS011;6800;50.940;6.940;2022-07-29T19:32:18;5.60;;;2.90;;
13455;SDS011;6800;50.940;6.940;2022-07-29T19:36:18;4.60;;;2.92;;
13455;SDS011;6800;50.940;6.940;2022-07-29T19:40:19;6.35;;;3.50;;
13455;SDS011;6800;50.940;6.940;2022-07-29T19:44:19;9.10;;;3.92;;
13455;SDS011;6800;50.940;6.940;2022-07-29T19:48:19;6.90;;;3.55;;
13455;SDS011;6800;50.940;6.940;2022-07-29T19:52:20;5.57;;;3.30;;
13455;SDS011;6800;50.940;6.940;2022-07-29T19:56:20;5.47;;;3.30;;
13455;SDS011;6800;50.940;6.940;2022-07-29T20:00:20;6.80;;;3.17;;
13455;SDS011;6800;50.940;6.940;2022-07-29T20:04:22;7.18;;;3.40;;
13455;SDS011;6800;50.940;6.940;2022-07-29T20:08:23;6.93;;;3.50;;
13455;SDS011;6800;50.940;6.940;2022-07-29T20:12:23;6.55;;;2.90;;
13455;SDS011;6800;50.940;6.940;2022-07-29T20:16:23;6.00;;;3.60;;
13455;SDS011;6800;50.940;6.940;2022-07-29T20:20:24;7.07;;;3.58;;
13455;SDS011;6800;50.940;6.940;2022-07-29T20:24:25;4.25;;;2.80;;
13455;SDS011;6800;50.940;6.940;2022-07-29T20:28:25;5.93;;;2.90;;
13455;SDS011;6800;50.940;6.940;2022-07-29T20:32:25;5.30;;;3.00;;
13455;SDS011;6800;50.940;6.940;2022-07-29T20:36:26;7.65;;;4.28;;
13455;SDS011;6800;50.940;6.940;2022-07-29T20:40:27;6.00;;;3.47;;
13455;SDS011;6800;50.940;6.940;2022-07-29T20:44:28;9.10;;;4.00;;
13455;SDS011;6800;50.940;6.940;2022-07-29T20:48:28;7.85;;;5.10;;
13455;SDS011;6800;50.940;6.940;2022-07-29T20:52:29;7.85;;;3.78;;
13455;SDS011;6800;50.940;6.940;2022-07-29T20:56:29;4.72;;;3.42;;
13455;SDS011;6800;50.940;6.940;2022-07-29T21:00:30;6.35;;;3.10;;
13455;SDS011;6800;50.940;6.940;2022-07-29T21:04:30;4.93;;;3.97;;
13455;SDS011;6800;50.940;6.940;2022-07-29T21:08:30;6.85;;;3.63;;
13455;SDS011;6800;50.940;6.940;2022-07-29T21:12:34;6.40;;;3.33;;
13455;SDS011;6800;50.940;6.940;2022-07-29T21:16:34;9.32;;;4.55;;
13455;SDS011;6800;50.940;6.940;2022-07-29T21:20:35;9.05;;;4.70;;
13455;SDS011;6800;50.940;6.940;2022-07-29T21:24:35;7.63;;;4.05;;
13455;SDS011;6800;50.940;6.940;2022-07-29T21:28:35;8.07;;;4.32;;
13455;SDS011;6800;50.940;6.940;2022-07-29T21:32:38;9.18;;;4.75;;
13455;SDS011;6800;50.940;6.940;2022-07-29T21:36:39;7.88;;;4.60;;
13455;SDS011;6800;50.940;6.940;2022-07-29T21:40:39;7.47;;;5.22;;
13455;SDS011;6800;50.940;6.940;2022-07-29T21:44:39;7.47;;;4.97;;
13455;SDS011;6800;50.940;6.940;2022-07-29T21:48:40;9.40;;;5.00;;
13455;SDS011;6800;50.940;6.940;2022-07-29T21:52:41;6.47;;;3.45;;
13455;SDS011;6800;50.940;6.940;2022-07-29T21:56:41;4.63;;;3.33;;
13455;SDS011;6800;50.940;6.940;2022-07-29T22:00:41;4.47;;;3.42;;
13455;SDS011;6800;50.940;6.940;2022-07-29T22:04:42;6.22;;;3.58;;
13455;SDS011;6800;50.940;6.940;2022-07-29T22:08:43;3.88;;;3.30;;
13455;SDS011;6800;50.940;6.940;2022-07-29T22:12:44;6.63;;;3.55;;
13455;SDS011;6800;50.940;6.940;2022-07-29T22:16:45;8.20;;;3.63;;
13455;SDS011;6800;50.940;6.940;2022-07-29T22:20:47;7.93;;;3.40;;
13455;SDS011;6800;50.940;6.940;2022-07-29T22:24:48;3.80;;;3.10;;
13455;SDS011;6800;50.940;6.940;2022-07-29T22:28:48;6.30;;;3.55;;
13455;SDS011;6800;50.940;6.940;2022-07-29T22:32:49;11.95;;;4.60;;
13455;SDS011;6800;50.940;6.940;2022-07-29T22:36:49;4.80;;;3.65;;
13455;SDS011;6800;50.940;6.940;2022-07-29T22:40:49;5.43;;;3.63;;
13455;SDS011;6800;50.940;6.940;2022-07-29T22:44:51;5.00;;;3.47;;
13455;SDS011;6800;50.940;6.940;2022-07-29T22:48:51;6.50;;;3.35;;
13455;SDS011;6800;50.940;6.940;2022-07-29T22:52:51;4.00;;;3.55;;
13455;SDS011;6800;50.940;6.940;2022-07-29T22:56:52;5.82;;;3.80;;
13455;SDS011;6800;50.940;6.940;2022-07-29T23:00:52;5.70;;;4.07;;
13455;SDS011;6800;50.940;6.940;2022-07-29T23:04:53;6.90;;;3.63;;
13455;SDS011;6800;50.940;6.940;2022-07-29T23:08:53;5.32;;;3.72;;
13455;SDS011;6800;50.940;6.940;2022-07-29T23:12:54;5.10;;;4.00;;
13455;SDS011;6800;50.940;6.940;2022-07-29T23:16:55;5.22;;;4.18;;
13455;SDS011;6800;50.940;6.940;2022-07-29T23:20:55;5.03;;;3.88;;
13455;SDS011;6800;50.940;6.940;2022-07-29T23:24:56;8.02;;;4.22;;
13455;SDS011;6800;50.940;6.940;2022-07-29T23:28:56;7.47;;;4.25;;
13455;SDS011;6800;50.940;6.940;2022-07-29T23:32:57;6.97;;;4.40;;
13455;SDS011;6800;50.940;6.940;2022-07-29T23:36:57;6.25;;;4.97;;
13455;SDS011;6800;50.940;6.940;2022-07-29T23:40:58;4.20;;;3.70;;
13455;SDS011;6800;50.940;6.940;2022-07-29T23:45:00;6.00;;;4.60;;
13455;SDS011;6800;50.940;6.940;2022-07-29T23:49:00;7.90;;;4.80;;
13455;SDS011;6800;50.940;6.940;2022-07-29T23:53:01;6.05;;;4.53;;
13455;SDS011;6800;50.940;6.940;2022-07-29T23:57:01;6.05;;;4.43;;
